Time;durP1;ratioP1;P1;durP2;ratioP2;P2;SDS_P1;SDS_P2;PMS_P1;PMS_P2;Temp;Humidity;BMP_temperature;BMP_pressure;BME280_temperature;BME280_humidity;BME280_pressure;Samples;Min_cycle;Max_cycle;Signal;HPM_P1;HPM_P2
2023/12/29 00:01:02;;;;;;;2.80;1.70;;;;;;;;;;4998994;28;20506;-69
2023/12/29 00:03:28;;;;;;;2.43;1.60;;;;;;;;;;4998944;28;20950;-69
2023/12/29 00:05:53;;;;;;;2.67;1.30;;;;;;;;;;4998753;28;20422;-68
2023/12/29 00:08:19;;;;;;;3.70;1.90;;;;;;;;;;4998265;28;20459;-67
2023/12/29 00:10:45;;;;;;;2.20;1.70;;;;;;;;;;4997857;28;20423;-68
2023/12/29 00:13:11;;;;;;;2.53;1.93;;;;;;;;;;5000566;28;20474;-67
2023/12/29 00:15:38;;;;;;;3.53;1.63;;;;;;;;;;5000071;28;20423;-68
2023/12/29 00:18:03;;;;;;;2.40;1.63;;;;;;;;;;5000091;28;20813;-68
2023/12/29 00:20:30;;;;;;;3.13;2.00;;;;;;;;;;5002075;28;20412;-68
2023/12/29 00:22:58;;;;;;;2.77;1.70;;;;;;;;;;5000483;28;20446;-69
2023/12/29 00:25:24;;;;;;;2.50;1.60;;;;;;;;;;5000085;28;20427;-69
2023/12/29 00:27:50;;;;;;;2.67;1.70;;;;;;;;;;4999530;28;20432;-69
2023/12/29 00:30:16;;;;;;;3.77;2.00;;;;;;;;;;4998475;28;20454;-69
2023/12/29 00:32:42;;;;;;;6.70;2.10;;;;;;;;;;4999710;28;20479;-70
2023/12/29 00:35:08;;;;;;;5.53;2.57;;;;;;;;;;4999049;28;20455;-68
2023/12/29 00:37:34;;;;;;;3.20;2.13;;;;;;;;;;4997926;28;20526;-70
2023/12/29 00:40:00;;;;;;;2.50;2.30;;;;;;;;;;4998768;28;20839;-70
2023/12/29 00:42:26;;;;;;;4.37;2.10;;;;;;;;;;4998197;28;20448;-69
2023/12/29 00:44:52;;;;;;;3.83;1.90;;;;;;;;;;4998367;28;20438;-69
2023/12/29 00:47:19;;;;;;;3.37;1.93;;;;;;;;;;4997882;28;20459;-68
2023/12/29 00:49:45;;;;;;;2.80;2.23;;;;;;;;;;4997963;28;20412;-69
2023/12/29 00:52:11;;;;;;;2.87;2.00;;;;;;;;;;4998480;28;20442;-69
2023/12/29 00:54:37;;;;;;;4.63;2.27;;;;;;;;;;4999264;28;20985;-68
2023/12/29 00:57:03;;;;;;;4.20;2.03;;;;;;;;;;4999070;28;20428;-69
2023/12/29 00:59:29;;;;;;;2.93;2.00;;;;;;;;;;5000273;28;20416;-67
2023/12/29 01:01:55;;;;;;;2.53;1.60;;;;;;;;;;4998705;28;20413;-69
2023/12/29 01:04:21;;;;;;;2.70;2.23;;;;;;;;;;4997819;28;20515;-69
2023/12/29 01:06:47;;;;;;;2.63;1.70;;;;;;;;;;5023029;23;20480;-69
2023/12/29 01:09:13;;;;;;;2.27;1.93;;;;;;;;;;5012384;28;20831;-69
2023/12/29 01:11:39;;;;;;;2.80;1.93;;;;;;;;;;5012980;28;20402;-69
2023/12/29 01:14:05;;;;;;;3.23;2.00;;;;;;;;;;5013218;28;20455;-69
2023/12/29 01:16:31;;;;;;;3.10;1.93;;;;;;;;;;5013120;28;20436;-69
2023/12/29 01:18:57;;;;;;;2.77;2.43;;;;;;;;;;5012871;28;20833;-69
2023/12/29 01:21:23;;;;;;;3.40;2.30;;;;;;;;;;5012787;28;20444;-69
2023/12/29 01:23:49;;;;;;;8.30;1.93;;;;;;;;;;5011486;28;20468;-69
2023/12/29 01:26:15;;;;;;;3.20;2.10;;;;;;;;;;5012736;28;20411;-69
2023/12/29 01:28:41;;;;;;;2.63;1.43;;;;;;;;;;5012691;28;20443;-69
2023/12/29 01:31:08;;;;;;;3.00;2.33;;;;;;;;;;5012378;28;20422;-68
2023/12/29 01:33:34;;;;;;;3.17;2.13;;;;;;;;;;5012656;28;20537;-68
2023/12/29 01:36:00;;;;;;;3.50;2.37;;;;;;;;;;5012558;28;20403;-68
2023/12/29 01:38:26;;;;;;;3.23;2.10;;;;;;;;;;5012538;28;20430;-68
2023/12/29 01:40:52;;;;;;;4.07;2.30;;;;;;;;;;5012241;28;20434;-68
2023/12/29 01:43:18;;;;;;;3.33;2.03;;;;;;;;;;5012550;28;20411;-68
2023/12/29 01:45:44;;;;;;;5.53;2.20;;;;;;;;;;5012309;28;20411;-68
2023/12/29 01:48:10;;;;;;;3.20;1.90;;;;;;;;;;5012266;28;20431;-68
2023/12/29 01:50:36;;;;;;;3.10;2.07;;;;;;;;;;5012226;28;20494;-68
2023/12/29 01:53:03;;;;;;;4.10;2.37;;;;;;;;;;5012356;28;20461;-68
2023/12/29 01:55:30;;;;;;;4.23;1.80;;;;;;;;;;5012216;28;20513;-68
2023/12/29 01:57:56;;;;;;;3.30;2.23;;;;;;;;;;5012129;28;20682;-68
2023/12/29 02:00:22;;;;;;;2.73;1.70;;;;;;;;;;5012064;28;20411;-68
2023/12/29 02:02:49;;;;;;;3.00;1.87;;;;;;;;;;5012406;28;20411;-68
2023/12/29 02:05:16;;;;;;;3.77;2.30;;;;;;;;;;5012336;28;20407;-68
2023/12/29 02:07:42;;;;;;;3.10;1.90;;;;;;;;;;5012017;28;20451;-68
2023/12/29 02:10:09;;;;;;;3.87;2.03;;;;;;;;;;5011808;28;20430;-68
2023/12/29 02:12:37;;;;;;;4.47;2.70;;;;;;;;;;5012181;28;20411;-68
2023/12/29 02:15:03;;;;;;;3.37;1.90;;;;;;;;;;5012439;28;20454;-68
2023/12/29 02:17:38;;;;;;;5.93;2.90;;;;;;;;;;5011991;28;20430;-68
2023/12/29 02:20:05;;;;;;;5.80;2.50;;;;;;;;;;5011848;28;20403;-68
2023/12/29 02:22:31;;;;;;;6.90;3.00;;;;;;;;;;5011974;28;20422;-68
2023/12/29 02:24:57;;;;;;;2.93;2.57;;;;;;;;;;5011905;28;20514;-69
2023/12/29 02:27:35;;;;;;;2.50;2.03;;;;;;;;;;5011816;28;20500;-68
2023/12/29 02:30:01;;;;;;;3.30;2.30;;;;;;;;;;5011768;28;20418;-68
2023/12/29 02:32:27;;;;;;;3.43;1.93;;;;;;;;;;5011931;28;20415;-68
2023/12/29 02:34:53;;;;;;;5.77;1.97;;;;;;;;;;5011862;28;20466;-69
2023/12/29 02:37:20;;;;;;;4.10;2.80;;;;;;;;;;5012063;28;20525;-69
2023/12/29 02:39:46;;;;;;;3.40;2.50;;;;;;;;;;5011624;28;20942;-69
2023/12/29 02:42:12;;;;;;;2.97;2.17;;;;;;;;;;5011810;28;20954;-68
2023/12/29 02:44:38;;;;;;;2.60;1.80;;;;;;;;;;5011920;28;20502;-68
2023/12/29 02:47:04;;;;;;;3.60;2.13;;;;;;;;;;5011605;28;20501;-68
2023/12/29 02:49:30;;;;;;;2.87;1.70;;;;;;;;;;5011797;28;20423;-68
2023/12/29 02:51:56;;;;;;;4.73;2.80;;;;;;;;;;5011443;28;20418;-69
2023/12/29 02:54:22;;;;;;;4.30;2.10;;;;;;;;;;5011544;28;20508;-69
2023/12/29 02:56:48;;;;;;;3.47;2.03;;;;;;;;;;5012037;28;20770;-69
2023/12/29 02:59:14;;;;;;;3.23;1.73;;;;;;;;;;5011672;28;20413;-68
2023/12/29 03:01:40;;;;;;;2.53;2.03;;;;;;;;;;5014118;28;20414;-68
2023/12/29 03:04:06;;;;;;;3.20;1.77;;;;;;;;;;5015460;28;20522;-68
2023/12/29 03:06:32;;;;;;;3.47;1.50;;;;;;;;;;5015481;28;20928;-68
2023/12/29 03:08:58;;;;;;;2.83;1.53;;;;;;;;;;5012736;28;20459;-68
2023/12/29 03:11:24;;;;;;;2.43;1.30;;;;;;;;;;5014102;28;20449;-69
2023/12/29 03:13:50;;;;;;;3.50;1.70;;;;;;;;;;5013962;28;20462;-69
2023/12/29 03:16:16;;;;;;;3.73;1.80;;;;;;;;;;5013967;28;20556;-69
2023/12/29 03:18:42;;;;;;;2.87;1.20;;;;;;;;;;5014359;28;20442;-69
2023/12/29 03:21:08;;;;;;;2.90;1.60;;;;;;;;;;5014131;28;20414;-69
2023/12/29 03:23:35;;;;;;;3.57;1.30;;;;;;;;;;5013965;28;20856;-69
2023/12/29 03:26:01;;;;;;;2.60;1.90;;;;;;;;;;5012603;28;20797;-69
2023/12/29 03:28:26;;;;;;;2.63;1.60;;;;;;;;;;5013766;28;20471;-69
2023/12/29 03:30:52;;;;;;;3.57;1.97;;;;;;;;;;5013633;28;20446;-69
2023/12/29 03:33:18;;;;;;;2.33;1.37;;;;;;;;;;5012422;28;20922;-69
2023/12/29 03:35:44;;;;;;;2.20;1.70;;;;;;;;;;5013693;28;20399;-69
2023/12/29 03:38:10;;;;;;;2.03;1.33;;;;;;;;;;5013876;28;21066;-68
2023/12/29 03:40:36;;;;;;;2.60;1.63;;;;;;;;;;5013359;28;20980;-68
2023/12/29 03:43:02;;;;;;;2.40;1.40;;;;;;;;;;5013735;28;20407;-68
2023/12/29 03:45:28;;;;;;;2.60;1.90;;;;;;;;;;5013637;28;20403;-68
2023/12/29 03:47:54;;;;;;;3.37;1.80;;;;;;;;;;5013712;28;20426;-68
2023/12/29 03:50:20;;;;;;;2.50;1.53;;;;;;;;;;5013437;28;20414;-68
2023/12/29 03:52:46;;;;;;;2.87;1.57;;;;;;;;;;5013596;28;20482;-68
2023/12/29 03:55:12;;;;;;;2.70;1.67;;;;;;;;;;5013571;28;20457;-68
2023/12/29 03:57:38;;;;;;;3.03;1.73;;;;;;;;;;5013452;28;20434;-68
2023/12/29 04:00:06;;;;;;;3.40;1.63;;;;;;;;;;5013324;28;20421;-68
2023/12/29 04:02:32;;;;;;;2.80;1.70;;;;;;;;;;5013576;28;20410;-68
2023/12/29 04:05:01;;;;;;;2.87;1.53;;;;;;;;;;5013454;28;20906;-68
2023/12/29 04:07:27;;;;;;;2.15;1.50;;;;;;;;;;4975472;28;1086120;-68
2023/12/29 04:09:52;;;;;;;2.30;1.50;;;;;;;;;;5013187;28;20206;-68
2023/12/29 04:12:18;;;;;;;3.13;1.77;;;;;;;;;;5013092;28;20427;-69
2023/12/29 04:14:44;;;;;;;5.40;2.40;;;;;;;;;;5014397;28;20473;-68
2023/12/29 04:17:13;;;;;;;2.37;1.70;;;;;;;;;;5014132;28;20436;-68
2023/12/29 04:19:40;;;;;;;3.53;2.10;;;;;;;;;;5013947;28;20414;-68
2023/12/29 04:22:07;;;;;;;2.80;1.50;;;;;;;;;;5014056;28;20414;-68
2023/12/29 04:24:33;;;;;;;3.90;1.90;;;;;;;;;;5014260;28;20501;-68
2023/12/29 04:26:58;;;;;;;2.43;1.53;;;;;;;;;;5014142;28;20778;-69
2023/12/29 04:29:24;;;;;;;2.73;1.60;;;;;;;;;;5013927;28;20411;-68
2023/12/29 04:31:51;;;;;;;3.40;1.57;;;;;;;;;;5013765;28;20502;-68
2023/12/29 04:34:17;;;;;;;2.40;2.00;;;;;;;;;;5013788;28;20482;-68
2023/12/29 04:36:43;;;;;;;2.87;1.80;;;;;;;;;;5013585;28;20833;-68
2023/12/29 04:39:09;;;;;;;3.10;1.30;;;;;;;;;;5013672;28;20793;-68
2023/12/29 04:41:35;;;;;;;2.77;1.70;;;;;;;;;;5013579;28;20449;-68
2023/12/29 04:44:01;;;;;;;2.67;1.80;;;;;;;;;;5013634;28;20407;-69
2023/12/29 04:46:27;;;;;;;3.17;1.40;;;;;;;;;;5012275;28;20473;-68
2023/12/29 04:48:53;;;;;;;2.50;1.80;;;;;;;;;;5013435;28;20439;-68
2023/12/29 04:51:20;;;;;;;4.07;1.80;;;;;;;;;;5013136;28;20422;-68
2023/12/29 04:53:46;;;;;;;2.90;2.07;;;;;;;;;;5013399;28;20465;-68
2023/12/29 04:56:12;;;;;;;2.40;1.40;;;;;;;;;;5013333;28;20411;-68
2023/12/29 04:58:38;;;;;;;2.50;1.63;;;;;;;;;;5013177;28;20517;-68
2023/12/29 05:01:04;;;;;;;3.47;1.70;;;;;;;;;;5014258;28;20925;-68
2023/12/29 05:03:30;;;;;;;5.40;1.83;;;;;;;;;;5013211;28;20411;-68
2023/12/29 05:05:56;;;;;;;2.67;1.53;;;;;;;;;;5013074;28;20414;-68
2023/12/29 05:08:22;;;;;;;3.40;1.67;;;;;;;;;;5012991;28;20482;-68
2023/12/29 05:10:48;;;;;;;3.80;1.90;;;;;;;;;;5012947;28;20778;-68
2023/12/29 05:13:14;;;;;;;3.00;2.00;;;;;;;;;;5012940;28;20410;-68
2023/12/29 05:15:40;;;;;;;1.70;1.03;;;;;;;;;;5012854;28;20486;-68
2023/12/29 05:18:06;;;;;;;2.30;1.60;;;;;;;;;;5013063;28;20427;-69
2023/12/29 05:20:32;;;;;;;2.20;1.20;;;;;;;;;;5013375;28;20414;-69
2023/12/29 05:22:58;;;;;;;2.70;1.43;;;;;;;;;;5012758;28;20415;-69
2023/12/29 05:25:24;;;;;;;2.20;1.70;;;;;;;;;;5012867;28;20461;-69
2023/12/29 05:27:50;;;;;;;2.07;1.23;;;;;;;;;;5012677;28;20434;-69
2023/12/29 05:30:16;;;;;;;2.50;1.50;;;;;;;;;;5012587;28;20415;-68
2023/12/29 05:32:42;;;;;;;2.27;1.23;;;;;;;;;;5012750;28;20443;-68
2023/12/29 05:35:09;;;;;;;2.90;1.53;;;;;;;;;;5012457;28;20572;-68
2023/12/29 05:37:35;;;;;;;2.53;1.47;;;;;;;;;;5011112;28;20821;-68
2023/12/29 05:40:01;;;;;;;2.23;1.30;;;;;;;;;;5012452;28;20407;-68
2023/12/29 05:42:27;;;;;;;2.70;1.90;;;;;;;;;;5012602;28;20415;-69
2023/12/29 05:44:53;;;;;;;2.20;1.30;;;;;;;;;;5012483;28;20415;-68
2023/12/29 05:47:19;;;;;;;2.53;1.60;;;;;;;;;;5012324;28;20926;-68
2023/12/29 05:49:45;;;;;;;2.77;1.27;;;;;;;;;;5012024;28;20509;-68
2023/12/29 05:52:11;;;;;;;2.70;1.60;;;;;;;;;;5012313;28;20494;-68
2023/12/29 05:54:37;;;;;;;2.63;1.67;;;;;;;;;;5012216;28;20475;-68
2023/12/29 05:57:03;;;;;;;2.20;1.00;;;;;;;;;;5011913;28;20417;-68
2023/12/29 05:59:29;;;;;;;2.83;1.60;;;;;;;;;;5010820;28;20427;-68
2023/12/29 06:01:56;;;;;;;2.10;1.20;;;;;;;;;;5011974;28;20844;-68
2023/12/29 06:04:22;;;;;;;2.30;1.53;;;;;;;;;;5012051;28;20421;-68
2023/12/29 06:06:47;;;;;;;2.03;1.17;;;;;;;;;;5011840;28;20415;-68
2023/12/29 06:09:13;;;;;;;2.07;1.13;;;;;;;;;;5012032;28;20445;-69
2023/12/29 06:11:39;;;;;;;1.97;1.10;;;;;;;;;;5011797;28;20415;-68
2023/12/29 06:14:05;;;;;;;2.00;0.93;;;;;;;;;;5011890;28;20466;-69
2023/12/29 06:16:31;;;;;;;2.43;1.00;;;;;;;;;;5011830;28;20415;-68
2023/12/29 06:18:57;;;;;;;3.30;1.17;;;;;;;;;;5011833;28;20481;-68
2023/12/29 06:21:23;;;;;;;5.07;1.80;;;;;;;;;;5010434;28;20419;-68
2023/12/29 06:23:49;;;;;;;2.53;1.23;;;;;;;;;;5011947;28;20449;-68
2023/12/29 06:26:18;;;;;;;3.17;1.73;;;;;;;;;;5011802;28;20469;-68
2023/12/29 06:28:45;;;;;;;3.00;1.57;;;;;;;;;;5011809;28;20779;-68
2023/12/29 06:31:11;;;;;;;2.93;1.27;;;;;;;;;;5010294;28;20423;-68
2023/12/29 06:33:37;;;;;;;2.53;0.90;;;;;;;;;;5011670;28;20820;-68
2023/12/29 06:36:03;;;;;;;2.27;1.30;;;;;;;;;;5013463;28;20413;-68
2023/12/29 06:38:30;;;;;;;3.13;1.07;;;;;;;;;;5015752;28;20462;-68
2023/12/29 06:40:55;;;;;;;3.47;1.33;;;;;;;;;;5015685;28;20438;-68
2023/12/29 06:43:21;;;;;;;2.40;1.27;;;;;;;;;;5015736;28;20924;-68
2023/12/29 06:45:47;;;;;;;2.10;1.27;;;;;;;;;;5015624;28;20418;-69
2023/12/29 06:48:13;;;;;;;2.80;1.40;;;;;;;;;;5015558;28;20434;-68
2023/12/29 06:50:39;;;;;;;2.67;1.50;;;;;;;;;;5015424;28;20943;-69
2023/12/29 06:53:05;;;;;;;2.00;1.00;;;;;;;;;;5015649;28;20407;-68
2023/12/29 06:55:31;;;;;;;1.77;0.83;;;;;;;;;;5015452;28;20470;-69
2023/12/29 06:57:57;;;;;;;2.47;1.43;;;;;;;;;;5015437;28;20442;-68
2023/12/29 07:00:23;;;;;;;2.10;1.20;;;;;;;;;;5015229;28;20553;-68
2023/12/29 07:02:49;;;;;;;2.30;1.50;;;;;;;;;;5015349;28;20411;-68
2023/12/29 07:05:15;;;;;;;3.43;1.43;;;;;;;;;;5015334;28;20473;-68
2023/12/29 07:07:41;;;;;;;2.30;1.30;;;;;;;;;;5038385;23;20509;-70
2023/12/29 07:10:07;;;;;;;2.90;1.20;;;;;;;;;;5014975;28;20402;-70
2023/12/29 07:12:34;;;;;;;2.20;1.23;;;;;;;;;;5013932;28;20407;-70
2023/12/29 07:14:59;;;;;;;2.40;1.40;;;;;;;;;;5015082;28;20545;-71
2023/12/29 07:17:25;;;;;;;1.77;1.00;;;;;;;;;;5013603;28;20533;-70
2023/12/29 07:19:51;;;;;;;2.57;1.30;;;;;;;;;;5014770;28;20414;-70
2023/12/29 07:22:17;;;;;;;3.43;1.70;;;;;;;;;;5015185;28;20464;-70
2023/12/29 07:24:43;;;;;;;1.93;1.10;;;;;;;;;;5015037;28;20782;-70
2023/12/29 07:27:09;;;;;;;2.30;1.23;;;;;;;;;;5014874;28;20450;-70
2023/12/29 07:29:35;;;;;;;2.53;1.50;;;;;;;;;;5014638;28;20838;-70
2023/12/29 07:32:01;;;;;;;1.83;1.00;;;;;;;;;;5014827;28;20403;-71
2023/12/29 07:34:28;;;;;;;2.00;1.17;;;;;;;;;;5014696;28;21031;-70
2023/12/29 07:36:54;;;;;;;2.43;1.20;;;;;;;;;;5015178;28;20423;-71
2023/12/29 07:39:20;;;;;;;2.37;1.03;;;;;;;;;;5014569;28;20934;-70
2023/12/29 07:41:48;;;;;;;2.13;1.30;;;;;;;;;;5014549;28;20518;-69
2023/12/29 07:44:14;;;;;;;3.70;1.97;;;;;;;;;;5014667;28;20902;-71
2023/12/29 07:46:40;;;;;;;2.33;1.40;;;;;;;;;;5014601;28;20418;-70
2023/12/29 07:49:06;;;;;;;3.10;1.90;;;;;;;;;;5013518;28;20585;-71
2023/12/29 07:51:33;;;;;;;2.10;1.00;;;;;;;;;;5014953;28;20411;-70
2023/12/29 07:53:59;;;;;;;2.03;1.20;;;;;;;;;;5014993;28;20557;-70
2023/12/29 07:56:24;;;;;;;3.60;1.70;;;;;;;;;;5015048;28;20411;-70
2023/12/29 07:58:50;;;;;;;1.90;1.00;;;;;;;;;;5013440;28;20489;-70
2023/12/29 08:01:16;;;;;;;2.43;1.40;;;;;;;;;;5013243;28;20422;-70
2023/12/29 08:03:42;;;;;;;1.80;0.90;;;;;;;;;;5013767;28;20541;-70
2023/12/29 08:06:09;;;;;;;3.40;1.53;;;;;;;;;;5014646;28;20949;-70
2023/12/29 08:08:35;;;;;;;2.10;1.00;;;;;;;;;;5013194;28;20462;-70
2023/12/29 08:11:01;;;;;;;2.57;1.33;;;;;;;;;;5013038;28;20471;-70
2023/12/29 08:13:27;;;;;;;1.60;0.70;;;;;;;;;;5014626;28;20443;-70
2023/12/29 08:15:53;;;;;;;2.43;1.20;;;;;;;;;;5014245;28;20422;-71
2023/12/29 08:18:19;;;;;;;2.30;1.10;;;;;;;;;;5013981;28;20427;-70
2023/12/29 08:20:45;;;;;;;2.23;1.00;;;;;;;;;;5013720;28;20406;-71
2023/12/29 08:23:11;;;;;;;2.00;1.23;;;;;;;;;;5012473;28;20557;-70
2023/12/29 08:25:37;;;;;;;3.20;1.63;;;;;;;;;;5013726;28;20439;-70
2023/12/29 08:28:03;;;;;;;2.63;1.00;;;;;;;;;;5013585;28;20492;-70
2023/12/29 08:30:29;;;;;;;2.53;1.47;;;;;;;;;;5013530;28;20513;-71
2023/12/29 08:32:55;;;;;;;2.20;1.00;;;;;;;;;;5013580;28;20988;-70
2023/12/29 08:35:21;;;;;;;2.20;1.30;;;;;;;;;;5013629;28;20948;-70
2023/12/29 08:37:47;;;;;;;2.57;1.47;;;;;;;;;;5012373;28;20535;-71
2023/12/29 08:40:13;;;;;;;2.13;1.20;;;;;;;;;;5013363;28;20494;-71
2023/12/29 08:42:39;;;;;;;3.77;1.50;;;;;;;;;;5013401;28;20966;-70
2023/12/29 08:45:05;;;;;;;3.70;2.00;;;;;;;;;;5013314;28;20776;-70
2023/12/29 08:47:31;;;;;;;2.60;1.50;;;;;;;;;;5013164;28;20442;-70
2023/12/29 08:49:57;;;;;;;1.90;1.00;;;;;;;;;;5012945;28;20810;-70
2023/12/29 08:52:23;;;;;;;5.20;1.40;;;;;;;;;;5013097;28;20444;-71
2023/12/29 08:54:49;;;;;;;2.40;1.20;;;;;;;;;;5013068;28;20526;-70
2023/12/29 08:57:15;;;;;;;2.30;1.00;;;;;;;;;;5012961;28;20406;-71
2023/12/29 08:59:41;;;;;;;2.07;0.80;;;;;;;;;;5012907;28;20418;-70
2023/12/29 09:02:07;;;;;;;2.50;1.40;;;;;;;;;;5013300;28;20789;-70
2023/12/29 09:04:33;;;;;;;2.53;1.00;;;;;;;;;;5013163;28;20421;-71
2023/12/29 09:06:59;;;;;;;2.00;1.00;;;;;;;;;;5013118;28;20415;-70
2023/12/29 09:09:25;;;;;;;2.00;0.73;;;;;;;;;;5011667;28;20556;-71
2023/12/29 09:11:51;;;;;;;2.53;0.97;;;;;;;;;;5012806;28;20415;-68
2023/12/29 09:14:17;;;;;;;2.03;0.90;;;;;;;;;;5011582;28;20539;-68
2023/12/29 09:16:46;;;;;;;2.20;0.90;;;;;;;;;;5012884;28;20506;-68
2023/12/29 09:19:12;;;;;;;3.20;1.40;;;;;;;;;;5011501;28;20439;-72
2023/12/29 09:21:38;;;;;;;3.03;1.00;;;;;;;;;;5012632;28;20410;-70
2023/12/29 09:24:04;;;;;;;2.07;0.90;;;;;;;;;;5013534;28;20426;-70
2023/12/29 09:26:30;;;;;;;2.07;1.17;;;;;;;;;;5012743;28;20415;-71
2023/12/29 09:28:56;;;;;;;1.73;0.97;;;;;;;;;;5011479;28;20517;-71
2023/12/29 09:31:22;;;;;;;1.80;0.90;;;;;;;;;;5012588;28;20932;-72
2023/12/29 09:33:48;;;;;;;1.63;0.80;;;;;;;;;;5012555;28;20555;-72
2023/12/29 09:36:17;;;;;;;1.70;0.90;;;;;;;;;;5011236;28;20426;-72
2023/12/29 09:38:46;;;;;;;2.33;1.27;;;;;;;;;;5011085;28;20448;-71
2023/12/29 09:41:14;;;;;;;1.60;0.80;;;;;;;;;;5012447;28;20419;-71
2023/12/29 09:43:42;;;;;;;1.80;0.80;;;;;;;;;;5012442;28;20415;-71
2023/12/29 09:46:09;;;;;;;1.80;0.77;;;;;;;;;;5012629;28;20815;-71
2023/12/29 09:48:36;;;;;;;2.50;1.20;;;;;;;;;;5012939;28;20430;-72
2023/12/29 09:51:03;;;;;;;3.67;1.67;;;;;;;;;;5012671;28;20854;-71
2023/12/29 09:53:29;;;;;;;2.87;1.90;;;;;;;;;;5010824;28;20421;-70
2023/12/29 09:55:56;;;;;;;2.63;1.43;;;;;;;;;;5012103;28;20415;-71
2023/12/29 09:58:25;;;;;;;1.83;1.10;;;;;;;;;;5011977;28;20546;-71
2023/12/29 10:00:51;;;;;;;1.60;0.90;;;;;;;;;;5011954;28;20439;-71
2023/12/29 10:03:17;;;;;;;1.80;0.87;;;;;;;;;;5012029;28;20419;-72
2023/12/29 10:05:45;;;;;;;2.53;1.13;;;;;;;;;;5012028;28;20407;-71
2023/12/29 10:08:12;;;;;;;2.43;1.20;;;;;;;;;;5011708;28;20509;-72
2023/12/29 10:10:39;;;;;;;1.87;0.90;;;;;;;;;;5011754;28;20503;-71
2023/12/29 10:13:06;;;;;;;2.00;1.00;;;;;;;;;;5012043;28;21007;-71
2023/12/29 10:15:38;;;;;;;3.03;1.30;;;;;;;;;;5011924;28;20548;-72
2023/12/29 10:18:27;;;;;;;1.90;1.00;;;;;;;;;;5010714;28;20455;-71
2023/12/29 10:20:53;;;;;;;2.40;1.00;;;;;;;;;;5013648;28;20399;-72
2023/12/29 10:23:42;;;;;;;2.10;1.27;;;;;;;;;;5011838;28;20417;-71
2023/12/29 10:26:10;;;;;;;1.80;1.00;;;;;;;;;;5013738;28;20484;-71
2023/12/29 10:28:36;;;;;;;2.33;0.90;;;;;;;;;;5011327;28;20461;-69
2023/12/29 10:31:04;;;;;;;1.73;1.17;;;;;;;;;;5011954;28;20414;-70
2023/12/29 10:33:32;;;;;;;2.27;0.97;;;;;;;;;;5010933;28;20473;-70
2023/12/29 10:36:02;;;;;;;1.80;0.87;;;;;;;;;;5012318;28;20858;-70
2023/12/29 10:38:30;;;;;;;3.43;0.97;;;;;;;;;;5010513;28;20446;-70
2023/12/29 10:41:13;;;;;;;3.50;1.10;;;;;;;;;;5011407;28;20458;-69
2023/12/29 10:43:44;;;;;;;2.50;1.10;;;;;;;;;;5011711;28;20407;-69
2023/12/29 10:46:10;;;;;;;2.43;1.33;;;;;;;;;;5010316;28;20423;-70
2023/12/29 10:48:37;;;;;;;3.20;1.30;;;;;;;;;;5011566;28;20808;-70
2023/12/29 10:51:04;;;;;;;2.80;1.00;;;;;;;;;;5011621;28;20410;-69
2023/12/29 10:53:30;;;;;;;1.87;0.93;;;;;;;;;;5011615;28;20403;-69
2023/12/29 10:55:59;;;;;;;2.33;0.93;;;;;;;;;;5011393;28;20418;-70
2023/12/29 10:58:29;;;;;;;1.90;0.90;;;;;;;;;;5011481;28;20432;-69
2023/12/29 11:00:56;;;;;;;2.53;1.13;;;;;;;;;;5009995;28;20553;-69
2023/12/29 11:03:22;;;;;;;1.80;1.10;;;;;;;;;;5011490;28;20415;-70
2023/12/29 11:05:48;;;;;;;1.83;0.93;;;;;;;;;;5009965;28;20421;-70
2023/12/29 11:08:23;;;;;;;2.10;0.90;;;;;;;;;;5011023;28;20493;-70
2023/12/29 11:10:49;;;;;;;1.90;1.00;;;;;;;;;;5011693;28;20417;-71
2023/12/29 11:13:15;;;;;;;3.17;1.30;;;;;;;;;;5011275;28;20525;-69
2023/12/29 11:15:43;;;;;;;2.87;1.60;;;;;;;;;;5011897;28;20494;-71
2023/12/29 11:18:10;;;;;;;2.63;1.10;;;;;;;;;;5011624;28;20435;-71
2023/12/29 11:20:39;;;;;;;2.00;1.13;;;;;;;;;;5011205;28;20489;-69
2023/12/29 11:23:07;;;;;;;2.30;1.10;;;;;;;;;;5012934;28;20419;-70
2023/12/29 11:25:33;;;;;;;1.70;0.90;;;;;;;;;;5013505;28;20419;-69
2023/12/29 11:27:59;;;;;;;4.03;1.20;;;;;;;;;;5013567;28;20449;-70
2023/12/29 11:30:25;;;;;;;2.23;1.60;;;;;;;;;;5014656;28;20446;-69
2023/12/29 11:32:57;;;;;;;2.63;1.20;;;;;;;;;;5014819;28;20485;-69
2023/12/29 11:35:29;;;;;;;2.73;1.80;;;;;;;;;;5014616;28;20454;-69
2023/12/29 11:37:58;;;;;;;1.80;1.00;;;;;;;;;;5014589;28;20458;-70
2023/12/29 11:40:44;;;;;;;2.63;1.40;;;;;;;;;;5014423;28;20464;-69
2023/12/29 11:43:13;;;;;;;2.47;1.53;;;;;;;;;;5014438;28;20426;-70
2023/12/29 11:45:39;;;;;;;3.70;1.33;;;;;;;;;;5014486;28;20419;-70
2023/12/29 11:48:05;;;;;;;2.17;1.20;;;;;;;;;;5014206;28;20874;-72
2023/12/29 11:50:33;;;;;;;2.13;1.10;;;;;;;;;;5014140;28;20490;-70
2023/12/29 11:52:59;;;;;;;2.33;1.47;;;;;;;;;;5013003;28;20423;-69
2023/12/29 11:55:29;;;;;;;2.40;1.30;;;;;;;;;;5014213;28;20492;-70
2023/12/29 11:57:55;;;;;;;2.10;1.10;;;;;;;;;;5014301;28;20508;-70
2023/12/29 12:00:21;;;;;;;1.83;1.10;;;;;;;;;;5014127;28;20445;-71
2023/12/29 12:02:51;;;;;;;2.10;1.30;;;;;;;;;;5015091;28;20443;-71
2023/12/29 12:05:36;;;;;;;2.30;1.10;;;;;;;;;;5013220;28;20858;-70
2023/12/29 12:08:03;;;;;;;1.80;0.90;;;;;;;;;;5012937;28;20541;-70
2023/12/29 12:10:33;;;;;;;2.20;1.20;;;;;;;;;;5012475;28;20454;-70
2023/12/29 12:12:59;;;;;;;2.20;1.50;;;;;;;;;;5014656;28;20426;-69
2023/12/29 12:15:29;;;;;;;4.33;2.23;;;;;;;;;;5014513;28;20453;-69
2023/12/29 12:17:56;;;;;;;2.77;2.00;;;;;;;;;;5014261;28;20960;-70
2023/12/29 12:20:22;;;;;;;3.20;1.70;;;;;;;;;;5013933;28;20446;-70
2023/12/29 12:22:57;;;;;;;2.33;1.50;;;;;;;;;;5013970;28;20415;-71
2023/12/29 12:25:29;;;;;;;2.00;1.00;;;;;;;;;;5013778;28;20416;-70
2023/12/29 12:27:55;;;;;;;1.80;0.97;;;;;;;;;;5012471;28;20813;-70
2023/12/29 12:30:22;;;;;;;2.70;1.33;;;;;;;;;;5013819;28;20472;-70
2023/12/29 12:32:57;;;;;;;2.17;1.10;;;;;;;;;;5013050;28;20419;-68
2023/12/29 12:35:26;;;;;;;2.30;1.30;;;;;;;;;;5013027;28;20560;-69
2023/12/29 12:38:07;;;;;;;2.63;1.30;;;;;;;;;;5014484;28;20514;-69
2023/12/29 12:40:33;;;;;;;2.67;1.57;;;;;;;;;;5013729;28;20407;-69
2023/12/29 12:42:59;;;;;;;2.00;1.00;;;;;;;;;;5013905;28;20493;-70
2023/12/29 12:45:26;;;;;;;3.20;1.93;;;;;;;;;;5012361;28;20961;-70
2023/12/29 12:47:55;;;;;;;2.57;1.30;;;;;;;;;;5013702;28;20954;-70
2023/12/29 12:50:21;;;;;;;1.70;1.00;;;;;;;;;;5013481;28;20784;-70
2023/12/29 12:52:47;;;;;;;2.83;1.40;;;;;;;;;;5012119;28;20483;-69
2023/12/29 12:55:14;;;;;;;2.20;1.17;;;;;;;;;;5013445;28;20508;-70
2023/12/29 12:57:40;;;;;;;3.50;1.63;;;;;;;;;;5013684;28;20523;-70
2023/12/29 13:00:07;;;;;;;2.63;1.77;;;;;;;;;;5013273;28;20489;-70
2023/12/29 13:02:34;;;;;;;2.20;1.13;;;;;;;;;;5012179;28;20422;-70
2023/12/29 13:05:02;;;;;;;1.80;1.10;;;;;;;;;;5013408;28;20448;-70
2023/12/29 13:07:28;;;;;;;2.43;1.77;;;;;;;;;;5037748;23;20478;-68
2023/12/29 13:09:54;;;;;;;3.60;1.40;;;;;;;;;;5012838;28;20434;-69
2023/12/29 13:12:20;;;;;;;2.07;1.17;;;;;;;;;;5013083;28;20410;-69
2023/12/29 13:14:46;;;;;;;2.10;1.37;;;;;;;;;;5013199;28;20469;-69
2023/12/29 13:17:14;;;;;;;2.63;1.33;;;;;;;;;;5013134;28;20904;-69
2023/12/29 13:19:40;;;;;;;2.20;1.50;;;;;;;;;;5012650;28;20432;-69
2023/12/29 13:22:07;;;;;;;2.40;1.53;;;;;;;;;;5013093;28;20939;-68
2023/12/29 13:24:35;;;;;;;1.90;1.07;;;;;;;;;;5013465;28;20782;-69
2023/12/29 13:27:07;;;;;;;2.43;1.70;;;;;;;;;;5012804;28;20494;-69
2023/12/29 13:29:36;;;;;;;3.60;1.47;;;;;;;;;;5012808;28;20433;-69
2023/12/29 13:32:11;;;;;;;2.80;1.20;;;;;;;;;;5012637;28;20424;-71
2023/12/29 13:34:58;;;;;;;2.70;1.30;;;;;;;;;;5012814;28;20469;-68
2023/12/29 13:37:26;;;;;;;1.73;1.10;;;;;;;;;;4991803;28;20937;-69
2023/12/29 13:39:52;;;;;;;2.20;1.50;;;;;;;;;;5012774;28;20513;-69
2023/12/29 13:42:19;;;;;;;1.93;1.30;;;;;;;;;;5012556;28;20822;-70
2023/12/29 13:44:45;;;;;;;3.03;1.97;;;;;;;;;;5012262;28;20415;-70
2023/12/29 13:47:12;;;;;;;2.43;1.57;;;;;;;;;;5012479;28;20421;-70
2023/12/29 13:49:38;;;;;;;2.07;1.20;;;;;;;;;;5012219;28;20498;-70
2023/12/29 13:52:05;;;;;;;2.33;1.40;;;;;;;;;;5012395;28;20429;-70
2023/12/29 13:54:31;;;;;;;2.60;1.20;;;;;;;;;;5012261;28;20461;-70
2023/12/29 13:56:57;;;;;;;1.83;1.13;;;;;;;;;;5012286;28;20441;-70
2023/12/29 13:59:32;;;;;;;7.60;1.60;;;;;;;;;;5012280;28;20894;-70
2023/12/29 14:02:00;;;;;;;2.70;1.70;;;;;;;;;;5012250;28;20458;-71
2023/12/29 14:04:25;;;;;;;2.27;1.30;;;;;;;;;;5012257;28;20419;-70
2023/12/29 14:07:00;;;;;;;2.53;1.53;;;;;;;;;;5012298;28;20414;-70
2023/12/29 14:09:26;;;;;;;1.87;1.40;;;;;;;;;;5012037;28;20450;-70
2023/12/29 14:11:53;;;;;;;3.67;2.00;;;;;;;;;;5011880;28;20476;-70
2023/12/29 14:14:24;;;;;;;3.00;1.60;;;;;;;;;;5011963;28;20462;-70
2023/12/29 14:16:50;;;;;;;3.10;2.10;;;;;;;;;;5012072;28;20766;-70
2023/12/29 14:19:16;;;;;;;3.27;1.67;;;;;;;;;;5011829;28;20853;-70
2023/12/29 14:21:42;;;;;;;3.37;1.50;;;;;;;;;;5011650;28;20455;-70
2023/12/29 14:24:15;;;;;;;2.20;1.53;;;;;;;;;;5011740;28;20418;-70
2023/12/29 14:26:44;;;;;;;3.37;1.70;;;;;;;;;;5011870;28;20503;-70
2023/12/29 14:29:11;;;;;;;2.20;1.40;;;;;;;;;;5010315;28;20451;-70
2023/12/29 14:31:44;;;;;;;5.60;2.07;;;;;;;;;;5011543;28;20783;-70
2023/12/29 14:34:10;;;;;;;2.90;2.20;;;;;;;;;;5011466;28;20454;-69
2023/12/29 14:36:37;;;;;;;2.93;2.33;;;;;;;;;;5010176;28;20422;-69
2023/12/29 14:39:04;;;;;;;3.13;1.63;;;;;;;;;;5011552;28;20430;-69
2023/12/29 14:41:30;;;;;;;3.20;2.27;;;;;;;;;;5011556;28;20498;-69